Latest Weather Observations for Douglas River

IDD60801

Issued at 9:35 am CST Saturday 1 November 2014 (issued every 30 minutes, with the page automatically refreshed every 10 minutes)

About weather observations | Map of weather stations | Latest weather observations for NT | Other Formats
Station Details ID: 014901 Name: DOUGLAS RIVER Lat: -13.83 Lon: 131.19 Height: 42.8 m
Data from the previous 72 hours. | See also: Recent months at Douglas River
Date/Time
CST
Temp
°C
App
Temp
°C
Dew
Point
Rel
Hum
%
Delta-T
°C
Wind Press
QNH
hPa
Press
MSL
hPa
Rain
since 9 am
mm
Dir
 
Spd
km/h
Gust
km/h
Spd
kts
Gust
kts
01/09:30am 31.4 34.7 21.8 56 6.5 W 7 13 4 7 1012.0 1011.7 0.0
01/09:00am 30.2 34.5 22.6 63 5.2 NNW 4 7 2 4 1012.0 1011.7 0.0
01/08:30am 28.5 33.1 23.1 72 3.7 NW 4 7 2 4 1012.0 1011.7 0.0
01/08:00am 27.1 31.8 22.0 73 3.4 CALM 0 0 0 0 1011.5 1011.2 0.0
01/07:30am 25.1 29.1 21.3 79 2.5 NE 2 6 1 3 1011.1 1010.8 0.0
01/07:00am 23.5 27.8 21.2 87 1.5 CALM 0 0 0 0 1010.7 1010.4 0.0
01/06:30am 21.8 25.5 19.9 89 1.2 CALM 0 0 0 0 1010.2 1009.9 0.0
01/06:00am 22.5 26.6 20.8 90 1.1 NNE 0 0 0 0 1009.8 1009.5 0.0
01/05:30am 22.7 26.9 20.9 89 1.2 CALM 0 0 0 0 1009.4 1009.1 0.0
01/05:00am 23.5 27.7 20.9 85 1.7 CALM 0 0 0 0 1008.9 1008.6 0.0
01/04:30am 23.4 27.8 21.3 88 1.4 CALM 0 0 0 0 1008.5 1008.2 0.0
01/04:00am 22.7 26.6 20.4 87 1.5 CALM 0 0 0 0 1008.2 1007.9 0.0
01/03:30am 23.2 27.4 20.9 87 1.5 CALM 0 0 0 0 1008.3 1008.0 0.0
01/03:00am 23.1 27.3 21.0 88 1.4 CALM 0 0 0 0 1008.2 1007.9 0.0
01/02:30am 24.6 29.0 21.4 82 2.1 CALM 0 0 0 0 1008.3 1008.0 0.0
01/02:00am 24.5 28.7 21.0 81 2.3 CALM 0 0 0 0 1008.5 1008.2 0.0
01/01:30am 25.7 30.2 21.5 77 2.8 CALM 0 0 0 0 1008.7 1008.4 0.0
01/01:00am 25.8 30.2 21.4 76 2.9 CALM 0 0 0 0 1008.9 1008.6 0.0
01/12:30am 26.0 30.6 21.7 77 2.9 CALM 0 4 0 2 1009.2 1008.9 0.0
01/12:00am 26.6 30.7 21.5 73 3.4 N 2 7 1 4 1009.6 1009.3 0.0
 
Date/Time
CST
Temp
°C
App
Temp
°C
Dew
Point
Rel
Hum
%
Delta-T
°C
Wind Press
QNH
hPa
Press
MSL
hPa
Rain
since 9 am
mm
Dir
 
Spd
km/h
Gust
km/h
Spd
kts
Gust
kts
31/11:30pm 27.2 31.8 21.7 72 3.7 NNW 0 6 0 3 1009.8 1009.5 0.0
31/11:00pm 27.9 31.3 21.6 68 4.2 NW 6 9 3 5 1009.8 1009.5 0.0
31/10:30pm 28.4 31.5 21.4 66 4.7 W 7 13 4 7 1009.7 1009.4 0.0
31/10:00pm 28.9 31.4 21.1 62 5.2 W 9 17 5 9 1009.4 1009.1 0.0
31/09:30pm 29.3 31.8 21.1 61 5.5 WNW 9 20 5 11 1009.1 1008.8 0.0
31/09:00pm 29.9 31.6 20.9 58 6.0 WNW 13 22 7 12 1008.8 1008.5 0.0
31/08:30pm 30.3 32.0 20.9 57 6.3 WNW 13 19 7 10 1008.5 1008.2 0.0
31/08:00pm 31.0 32.3 20.8 54 6.8 WNW 15 26 8 14 1008.0 1007.7 0.0
31/07:30pm 31.9 33.0 20.5 51 7.6 WNW 15 28 8 15 1007.4 1007.1 0.0
31/07:00pm 33.4 33.6 20.2 46 8.8 WNW 19 30 10 16 1006.6 1006.3 0.0
31/06:30pm 35.1 36.1 13.3 27 13.3 CALM 0 0 0 0 1006.0 1005.7 0.0
31/06:00pm 37.0 37.8 12.7 23 14.8 CALM 0 6 0 3 1005.7 1005.4 0.0
31/05:30pm 38.8 37.8 10.3 18 16.9 NNE 6 11 3 6 1005.4 1005.0 0.0
31/05:00pm 39.3 38.5 11.2 18 16.9 N 6 9 3 5 1005.2 1004.8 0.0
31/04:30pm 39.8 38.6 10.2 17 17.6 SSW 7 19 4 10 1005.3 1004.9 0.0
31/04:00pm 39.9 38.2 9.8 16 17.7 NE 9 20 5 11 1005.5 1005.1 0.0
31/03:30pm 40.4 39.5 10.7 17 17.8 NW 6 11 3 6 1005.9 1005.6 0.0
31/03:00pm 38.9 37.3 10.2 17 17.0 W 9 17 5 9 1006.2 1005.9 0.0
31/02:30pm 38.4 37.6 11.2 19 16.3 NNW 6 13 3 7 1006.5 1006.2 0.0
31/02:00pm 38.9 37.6 11.3 19 16.6 E 9 19 5 10 1006.9 1006.6 0.0
31/01:30pm 38.1 35.9 10.9 19 16.2 E 13 22 7 12 1007.7 1007.4 0.0
31/01:00pm 37.4 36.1 11.3 20 15.6 WNW 9 17 5 9 1008.3 1008.0 0.0
31/12:30pm 37.0 36.1 11.4 21 15.3 W 7 13 4 7 1009.0 1008.7 0.0
31/12:00pm 36.5 36.5 14.3 26 13.8 NNE 7 11 4 6 1009.6 1009.3 0.0
31/11:30am 35.3 36.2 16.1 32 12.2 NNE 6 9 3 5 1010.2 1009.9 0.0
31/11:00am 34.1 35.0 16.5 35 11.2 E 7 13 4 7 1010.7 1010.4 0.0
31/10:30am 32.8 33.8 17.7 40 9.7 NW 9 15 5 8 1011.1 1010.8 0.0
31/10:00am 32.7 34.2 17.6 40 9.7 NW 6 11 3 6 1011.4 1011.1 0.0
31/09:30am 31.8 33.9 18.9 46 8.4 N 6 13 3 7 1011.7 1011.4 0.0
31/09:00am 30.7 33.6 20.6 54 6.7 W 6 13 3 7 1011.6 1011.3 0.0
31/08:30am 29.3 32.9 22.4 66 4.7 WNW 7 13 4 7 1011.5 1011.2 0.0
31/08:00am 27.3 31.8 22.9 77 3.0 NW 4 9 2 5 1011.1 1010.8 0.0
31/07:30am 25.5 30.3 22.1 81 2.3 CALM 0 0 0 0 1010.8 1010.5 0.0
31/07:00am 23.6 28.1 21.5 88 1.4 CALM 0 0 0 0 1010.2 1009.9 0.0
31/06:30am 22.6 26.9 21.2 92 0.9 CALM 0 0 0 0 1009.8 1009.5 0.0
31/06:00am 22.0 26.2 20.9 93 0.7 CALM 0 0 0 0 1009.6 1009.3 0.0
31/05:30am 22.2 26.2 20.5 90 1.1 CALM 0 0 0 0 1009.2 1008.9 0.0
31/05:00am 22.8 27.0 21.0 89 1.2 CALM 0 0 0 0 1009.0 1008.7 0.0
31/04:30am 23.8 28.2 21.4 86 1.6 CALM 0 0 0 0 1008.8 1008.5 0.0
31/04:00am 24.1 28.6 21.5 85 1.7 CALM 0 6 0 3 1008.5 1008.2 0.0
31/03:30am 24.5 28.6 21.6 84 1.9 NNW 2 6 1 3 1008.4 1008.1 0.0
31/03:00am 24.7 29.0 22.0 85 1.8 NW 2 7 1 4 1008.4 1008.1 0.0
31/02:30am 24.9 29.8 22.4 86 1.7 CALM 0 0 0 0 1008.5 1008.2 0.0
31/02:00am 25.2 30.2 22.5 85 1.8 CALM 0 0 0 0 1008.7 1008.4 0.0
31/01:30am 25.8 30.9 22.7 83 2.1 CALM 0 0 0 0 1008.8 1008.5 0.0
31/01:00am 26.0 31.2 22.8 82 2.2 CALM 0 0 0 0 1008.9 1008.6 0.0
31/12:30am 26.4 30.7 22.7 80 2.5 N 4 6 2 3 1008.9 1008.6 0.0
31/12:00am 26.9 32.1 22.8 78 2.8 CALM 0 0 0 0 1009.2 1008.9 0.0
 
Date/Time
CST
Temp
°C
App
Temp
°C
Dew
Point
Rel
Hum
%
Delta-T
°C
Wind Press
QNH
hPa
Press
MSL
hPa
Rain
since 9 am
mm
Dir
 
Spd
km/h
Gust
km/h
Spd
kts
Gust
kts
30/11:30pm 27.6 32.1 22.9 75 3.2 NW 4 7 2 4 1009.5 1009.2 0.0
30/11:00pm 28.1 31.9 22.7 72 3.7 WNW 7 11 4 6 1009.7 1009.4 0.0
30/10:30pm 28.5 31.8 22.6 70 4.0 WNW 9 13 5 7 1009.6 1009.3 0.0
30/10:00pm 28.9 32.2 22.6 69 4.3 W 9 15 5 8 1009.4 1009.1 0.0
30/09:30pm 29.4 31.9 22.5 66 4.7 W 13 22 7 12 1009.0 1008.7 0.0
30/09:00pm 29.9 32.5 22.6 65 5.0 W 13 26 7 14 1008.6 1008.3 0.0
30/08:30pm 30.6 32.8 22.6 62 5.5 W 15 24 8 13 1008.0 1007.7 0.0
30/08:00pm 31.6 33.7 22.4 58 6.3 W 15 26 8 14 1007.6 1007.3 0.0
30/07:30pm 32.7 34.3 22.2 54 7.2 W 17 24 9 13 1007.0 1006.7 0.0
30/07:00pm 34.0 35.2 17.4 37 10.7 WNW 7 24 4 13 1006.4 1006.1 0.0
30/06:30pm 35.7 36.8 13.5 26 13.6 CALM 0 0 0 0 1006.0 1005.7 0.0
30/06:00pm 37.9 38.0 11.4 20 15.9 NNE 2 7 1 4 1005.7 1005.4 0.0
30/05:30pm 38.7 37.9 11.2 19 16.5 N 6 9 3 5 1005.4 1005.0 0.0
30/05:00pm 39.4 38.6 11.1 18 17.0 N 6 11 3 6 1005.4 1005.0 0.0
30/04:30pm 39.8 39.9 12.6 20 16.7 N 4 9 2 5 1005.4 1005.0 0.0
30/04:00pm 40.4 38.7 11.3 17 17.6 ENE 11 20 6 11 1005.6 1005.3 0.0
30/03:30pm 40.7 38.6 9.9 16 18.3 ENE 11 20 6 11 1005.8 1005.5 0.0
30/03:00pm 40.2 39.2 10.9 17 17.6 NNE 7 11 4 6 1006.1 1005.8 0.0
30/02:30pm 39.6 37.7 10.6 17 17.3 WNW 11 20 6 11 1006.4 1006.1 0.0
30/02:00pm 39.7 38.7 12.2 19 16.8 NE 9 20 5 11 1006.8 1006.5 0.0
30/01:30pm 38.9 38.2 13.1 21 15.9 E 9 15 5 8 1007.4 1007.1 0.0
30/01:00pm 38.3 38.5 14.8 25 14.8 NW 7 13 4 7 1008.1 1007.8 0.0
30/12:30pm 36.8 37.6 15.9 29 13.3 NW 6 9 3 5 1008.9 1008.6 0.0
30/12:00pm 35.5 36.8 17.2 33 11.8 N 6 9 3 5 1009.6 1009.3 0.0
30/11:30am 34.7 37.2 18.1 37 10.8 E 2 11 1 6 1010.1 1009.8 0.0
30/11:00am 33.0 34.8 18.8 43 9.3 NNE 7 13 4 7 1010.6 1010.3 0.0
30/10:30am 32.3 34.5 20.5 49 7.9 WSW 9 15 5 8 1011.1 1010.8 0.0
30/10:00am 31.2 33.9 21.4 56 6.6 W 9 15 5 8 1011.5 1011.2 0.0
30/09:30am 30.5 33.4 21.8 59 5.9 W 9 13 5 7 1011.8 1011.5 0.0
30/09:00am 29.0 32.7 23.2 71 4.0 WSW 9 11 5 6 1011.7 1011.4 0.0
30/08:30am 27.9 32.5 23.2 75 3.2 NW 4 7 2 4 1011.7 1011.4 0.0
30/08:00am 27.2 31.8 22.5 75 3.2 NNE 2 6 1 3 1011.4 1011.1 0.0
30/07:30am 25.8 31.1 23.0 84 1.9 CALM 0 0 0 0 1011.2 1010.9 0.0
30/07:00am 23.3 28.0 21.9 92 0.9 CALM 0 0 0 0 1011.0 1010.7 0.0
30/06:30am 22.9 27.5 21.7 93 0.8 CALM 0 0 0 0 1010.4 1010.1 0.0
30/06:00am 23.9 28.8 22.4 91 1.0 CALM 0 0 0 0 1010.3 1010.0 0.0
30/05:30am 24.1 29.0 22.3 90 1.2 CALM 0 0 0 0 1010.1 1009.8 0.0
30/05:00am 23.7 27.8 22.2 91 1.0 NE 4 6 2 3 1010.0 1009.7 0.0
30/04:30am 23.8 28.6 22.2 91 1.1 CALM 0 0 0 0 1009.7 1009.4 0.0
30/04:00am 25.0 30.2 22.8 87 1.5 CALM 0 0 0 0 1009.5 1009.2 0.0
30/03:30am 25.1 30.2 22.7 86 1.6 CALM 0 0 0 0 1009.4 1009.1 0.0
30/03:00am 25.0 29.6 22.5 86 1.7 NW 2 7 1 4 1009.6 1009.3 0.0
30/02:30am 25.3 29.9 22.5 84 1.9 WNW 2 6 1 3 1009.7 1009.4 0.0
30/02:00am 26.2 31.5 23.1 83 2.1 CALM 0 0 0 0 1010.0 1009.7 0.0
30/01:30am 26.8 32.1 23.1 80 2.5 CALM 0 0 0 0 1010.5 1010.2 0.0
30/01:00am 27.2 32.6 23.3 79 2.7 CALM 0 0 0 0 1010.7 1010.4 0.0
30/12:30am 27.4 32.8 23.3 78 2.8 CALM 0 4 0 2 1010.8 1010.5 0.0
30/12:00am 27.7 33.3 23.5 78 2.9 CALM 0 0 0 0 1010.9 1010.6 0.0
 
Date/Time
CST
Temp
°C
App
Temp
°C
Dew
Point
Rel
Hum
%
Delta-T
°C
Wind Press
QNH
hPa
Press
MSL
hPa
Rain
since 9 am
mm
Dir
 
Spd
km/h
Gust
km/h
Spd
kts
Gust
kts
29/11:30pm 28.1 33.5 23.8 77 3.0 N 2 7 1 4 1010.9 1010.6 0.0
29/11:00pm 28.4 33.3 23.6 75 3.3 NNW 4 13 2 7 1011.1 1010.8 0.0
29/10:30pm 28.6 32.7 23.2 72 3.7 NW 7 15 4 8 1010.9 1010.6 0.0
29/10:00pm 28.9 32.4 22.9 70 4.1 NW 9 17 5 9 1010.5 1010.2 0.0
29/09:30pm 29.2 31.6 22.9 69 4.3 WNW 15 28 8 15 1010.0 1009.7 0.0
29/09:00pm 29.7 31.7 23.0 67 4.6 WNW 17 28 9 15 1009.7 1009.4 0.0
29/08:30pm 30.5 32.3 22.6 62 5.4 WNW 17 32 9 17 1009.1 1008.8 0.0
29/08:00pm 31.5 33.2 22.3 58 6.3 WNW 17 30 9 16 1008.5 1008.2 0.0
29/07:30pm 34.0 33.7 13.2 28 12.6 W 7 9 4 5 1007.5 1007.2 0.0
29/07:00pm 34.8 35.0 14.2 29 12.7 W 6 7 3 4 1007.2 1006.9 0.0
29/06:30pm 36.6 36.7 14.5 26 13.8 S 7 9 4 5 1007.0 1006.7 0.0
29/06:00pm 38.0 36.7 11.3 20 16.0 SSE 9 13 5 7 1006.8 1006.5 0.0
29/05:30pm 38.4 35.8 9.2 17 17.0 SE 13 22 7 12 1006.7 1006.4 0.0
29/05:00pm 39.5 38.1 11.0 18 17.1 S 9 24 5 13 1006.8 1006.5 0.0
29/04:30pm 39.5 35.5 8.3 15 18.0 ESE 19 32 10 17 1006.9 1006.6 0.0
29/04:00pm 39.4 37.3 9.6 16 17.5 S 11 17 6 9 1007.1 1006.8 0.0
29/03:30pm 39.4 38.1 9.9 17 17.4 NE 7 15 4 8 1007.5 1007.2 0.0
29/03:00pm 39.7 36.9 9.9 16 17.6 E 15 30 8 16 1007.8 1007.5 0.0
29/02:30pm 39.3 38.3 10.9 18 17.0 NNE 7 17 4 9 1008.1 1007.8 0.0
29/02:00pm 39.0 37.7 11.4 19 16.6 ENE 9 22 5 12 1008.7 1008.4 0.0
29/01:30pm 37.6 35.8 12.1 21 15.4 ENE 13 24 7 13 1009.5 1009.2 0.0
29/01:00pm 37.0 35.7 12.4 23 14.9 ESE 11 20 6 11 1010.2 1009.9 0.0
29/12:30pm 36.0 35.2 14.0 26 13.6 ENE 11 20 6 11 1010.9 1010.6 0.0
29/12:00pm 35.6 36.5 16.5 32 12.2 NNE 7 15 4 8 1011.7 1011.4 0.0
29/11:30am 35.5 36.3 17.2 33 11.8 E 9 17 5 9 1012.2 1011.9 0.0
29/11:00am 33.4 35.1 18.1 40 9.9 NE 6 11 3 6 1012.6 1012.3 0.0
29/10:30am 32.1 34.8 20.2 49 7.9 NNE 6 9 3 5 1013.0 1012.7 0.0
29/10:00am 31.1 33.5 20.8 54 6.9 W 9 15 5 8 1013.4 1013.1 0.0

Other Formats:

Comma delimited format used in spreadsheet applications
http://www.bom.gov.au/fwo/IDD60801/IDD60801.94128.axf

JavaScript Object Notation format (JSON) in row-major order
http://www.bom.gov.au/fwo/IDD60801/IDD60801.94128.json